sensor_id;sensor_type;location;lat;lon;timestamp;temperature;humidity
20147;DHT22;10234;50.856;15.716;2022-08-19T00:01:46;23.80;99.90
20147;DHT22;10234;50.856;15.716;2022-08-19T00:04:15;23.80;99.90
20147;DHT22;10234;50.856;15.716;2022-08-19T00:06:44;23.80;99.90
20147;DHT22;10234;50.856;15.716;2022-08-19T00:09:16;23.70;99.90
20147;DHT22;10234;50.856;15.716;2022-08-19T00:11:45;23.70;99.90
20147;DHT22;10234;50.856;15.716;2022-08-19T00:14:13;23.80;99.90
20147;DHT22;10234;50.856;15.716;2022-08-19T00:16:42;24.00;99.90
20147;DHT22;10234;50.856;15.716;2022-08-19T00:19:09;23.90;99.90
20147;DHT22;10234;50.856;15.716;2022-08-19T00:21:36;23.90;99.90
20147;DHT22;10234;50.856;15.716;2022-08-19T00:24:05;23.90;99.90
20147;DHT22;10234;50.856;15.716;2022-08-19T00:26:34;23.90;99.90
20147;DHT22;10234;50.856;15.716;2022-08-19T00:29:01;23.90;99.90
20147;DHT22;10234;50.856;15.716;2022-08-19T00:31:28;23.70;99.90
20147;DHT22;10234;50.856;15.716;2022-08-19T00:33:56;23.30;99.90
20147;DHT22;10234;50.856;15.716;2022-08-19T00:36:23;22.90;99.90
20147;DHT22;10234;50.856;15.716;2022-08-19T00:38:50;22.60;99.90
20147;DHT22;10234;50.856;15.716;2022-08-19T00:41:20;22.30;99.90
20147;DHT22;10234;50.856;15.716;2022-08-19T00:43:59;22.00;99.90
20147;DHT22;10234;50.856;15.716;2022-08-19T00:46:26;21.80;99.90
20147;DHT22;10234;50.856;15.716;2022-08-19T00:48:54;21.50;99.90
20147;DHT22;10234;50.856;15.716;2022-08-19T00:51:22;21.20;99.90
20147;DHT22;10234;50.856;15.716;2022-08-19T00:53:50;21.20;99.90
20147;DHT22;10234;50.856;15.716;2022-08-19T00:56:17;20.90;99.90
20147;DHT22;10234;50.856;15.716;2022-08-19T00:58:44;20.80;99.90
20147;DHT22;10234;50.856;15.716;2022-08-19T01:01:12;20.70;99.90
20147;DHT22;10234;50.856;15.716;2022-08-19T01:03:39;20.50;99.90
20147;DHT22;10234;50.856;15.716;2022-08-19T01:06:06;20.30;99.90
20147;DHT22;10234;50.856;15.716;2022-08-19T01:08:34;20.30;99.90
20147;DHT22;10234;50.856;15.716;2022-08-19T01:11:01;20.20;99.90
20147;DHT22;10234;50.856;15.716;2022-08-19T01:13:30;20.10;99.90
20147;DHT22;10234;50.856;15.716;2022-08-19T01:16:01;20.00;99.90
20147;DHT22;10234;50.856;15.716;2022-08-19T01:18:32;19.90;99.90
20147;DHT22;10234;50.856;15.716;2022-08-19T01:21:06;19.70;99.90
20147;DHT22;10234;50.856;15.716;2022-08-19T01:23:35;19.70;99.90
20147;DHT22;10234;50.856;15.716;2022-08-19T01:26:13;19.70;99.90
20147;DHT22;10234;50.856;15.716;2022-08-19T01:28:43;19.70;99.90
20147;DHT22;10234;50.856;15.716;2022-08-19T01:31:14;19.70;99.90
20147;DHT22;10234;50.856;15.716;2022-08-19T01:33:41;19.60;99.90
20147;DHT22;10234;50.856;15.716;2022-08-19T01:36:12;19.60;99.90
20147;DHT22;10234;50.856;15.716;2022-08-19T01:38:42;19.60;99.90
20147;DHT22;10234;50.856;15.716;2022-08-19T01:41:10;19.50;99.90
20147;DHT22;10234;50.856;15.716;2022-08-19T01:43:38;19.50;99.90
20147;DHT22;10234;50.856;15.716;2022-08-19T01:46:05;19.40;99.90
20147;DHT22;10234;50.856;15.716;2022-08-19T01:48:37;19.30;99.90
20147;DHT22;10234;50.856;15.716;2022-08-19T01:51:04;19.10;99.90
20147;DHT22;10234;50.856;15.716;2022-08-19T01:53:31;19.20;99.90
20147;DHT22;10234;50.856;15.716;2022-08-19T01:56:00;19.20;99.90
20147;DHT22;10234;50.856;15.716;2022-08-19T01:58:29;19.00;99.90
20147;DHT22;10234;50.856;15.716;2022-08-19T02:00:58;18.90;99.90
20147;DHT22;10234;50.856;15.716;2022-08-19T02:03:25;18.80;99.90
20147;DHT22;10234;50.856;15.716;2022-08-19T02:05:56;18.90;99.90
20147;DHT22;10234;50.856;15.716;2022-08-19T02:08:25;18.60;99.90
20147;DHT22;10234;50.856;15.716;2022-08-19T02:10:52;18.40;99.90
20147;DHT22;10234;50.856;15.716;2022-08-19T02:13:20;18.40;99.90
20147;DHT22;10234;50.856;15.716;2022-08-19T02:15:47;18.60;99.90
20147;DHT22;10234;50.856;15.716;2022-08-19T02:18:14;18.30;99.90
20147;DHT22;10234;50.856;15.716;2022-08-19T02:20:42;18.60;99.90
20147;DHT22;10234;50.856;15.716;2022-08-19T02:23:13;18.30;99.90
20147;DHT22;10234;50.856;15.716;2022-08-19T02:25:40;18.30;99.90
20147;DHT22;10234;50.856;15.716;2022-08-19T02:28:07;18.30;99.90
20147;DHT22;10234;50.856;15.716;2022-08-19T02:30:36;18.30;99.90
20147;DHT22;10234;50.856;15.716;2022-08-19T02:33:03;18.20;99.90
20147;DHT22;10234;50.856;15.716;2022-08-19T02:35:30;18.20;99.90
20147;DHT22;10234;50.856;15.716;2022-08-19T02:37:57;16.50;99.90
20147;DHT22;10234;50.856;15.716;2022-08-19T02:40:48;18.30;99.90
20147;DHT22;10234;50.856;15.716;2022-08-19T02:43:17;18.30;99.90
20147;DHT22;10234;50.856;15.716;2022-08-19T02:45:47;18.40;99.90
20147;DHT22;10234;50.856;15.716;2022-08-19T02:48:15;18.30;99.90
20147;DHT22;10234;50.856;15.716;2022-08-19T02:50:44;18.20;99.90
20147;DHT22;10234;50.856;15.716;2022-08-19T02:53:11;18.30;99.90
20147;DHT22;10234;50.856;15.716;2022-08-19T02:55:43;18.30;99.90
20147;DHT22;10234;50.856;15.716;2022-08-19T02:58:11;18.10;99.90
20147;DHT22;10234;50.856;15.716;2022-08-19T03:00:43;18.20;99.90
20147;DHT22;10234;50.856;15.716;2022-08-19T03:03:12;17.90;99.90
20147;DHT22;10234;50.856;15.716;2022-08-19T03:05:39;17.80;99.90
20147;DHT22;10234;50.856;15.716;2022-08-19T03:08:06;17.80;99.90
20147;DHT22;10234;50.856;15.716;2022-08-19T03:10:40;17.70;99.90
20147;DHT22;10234;50.856;15.716;2022-08-19T03:13:07;17.70;99.90
20147;DHT22;10234;50.856;15.716;2022-08-19T03:15:34;17.70;99.90
20147;DHT22;10234;50.856;15.716;2022-08-19T03:18:01;17.60;99.90
20147;DHT22;10234;50.856;15.716;2022-08-19T03:20:29;17.60;99.90
20147;DHT22;10234;50.856;15.716;2022-08-19T03:22:56;17.50;99.90
20147;DHT22;10234;50.856;15.716;2022-08-19T03:25:23;17.40;99.90
20147;DHT22;10234;50.856;15.716;2022-08-19T03:27:50;17.40;99.90
20147;DHT22;10234;50.856;15.716;2022-08-19T03:30:17;17.30;99.90
20147;DHT22;10234;50.856;15.716;2022-08-19T03:32:43;17.30;99.90
20147;DHT22;10234;50.856;15.716;2022-08-19T03:35:10;17.30;99.90
20147;DHT22;10234;50.856;15.716;2022-08-19T03:37:38;17.10;99.90
20147;DHT22;10234;50.856;15.716;2022-08-19T03:43:13;17.10;99.90
20147;DHT22;10234;50.856;15.716;2022-08-19T03:45:44;17.00;99.90
20147;DHT22;10234;50.856;15.716;2022-08-19T03:48:11;16.90;99.90
20147;DHT22;10234;50.856;15.716;2022-08-19T03:50:38;16.90;99.90
20147;DHT22;10234;50.856;15.716;2022-08-19T03:53:07;16.90;99.90
20147;DHT22;10234;50.856;15.716;2022-08-19T03:55:39;16.70;99.90
20147;DHT22;10234;50.856;15.716;2022-08-19T03:58:06;16.70;99.90
20147;DHT22;10234;50.856;15.716;2022-08-19T04:00:33;16.70;99.90
20147;DHT22;10234;50.856;15.716;2022-08-19T04:02:59;16.80;99.90
20147;DHT22;10234;50.856;15.716;2022-08-19T04:05:27;16.60;99.90
20147;DHT22;10234;50.856;15.716;2022-08-19T04:07:55;16.50;99.90
20147;DHT22;10234;50.856;15.716;2022-08-19T04:10:25;16.50;99.90
20147;DHT22;10234;50.856;15.716;2022-08-19T04:12:53;16.60;99.90
20147;DHT22;10234;50.856;15.716;2022-08-19T04:15:20;16.70;99.90
20147;DHT22;10234;50.856;15.716;2022-08-19T04:17:46;16.90;99.90
20147;DHT22;10234;50.856;15.716;2022-08-19T04:20:13;16.80;99.90
20147;DHT22;10234;50.856;15.716;2022-08-19T04:22:40;16.90;99.90
20147;DHT22;10234;50.856;15.716;2022-08-19T04:25:08;16.70;99.90
20147;DHT22;10234;50.856;15.716;2022-08-19T04:27:36;17.00;99.90
20147;DHT22;10234;50.856;15.716;2022-08-19T04:30:05;17.10;99.90
20147;DHT22;10234;50.856;15.716;2022-08-19T04:32:32;17.10;99.90
20147;DHT22;10234;50.856;15.716;2022-08-19T04:35:00;17.10;99.90
20147;DHT22;10234;50.856;15.716;2022-08-19T04:37:27;17.30;99.90
20147;DHT22;10234;50.856;15.716;2022-08-19T04:39:58;17.30;99.90
20147;DHT22;10234;50.856;15.716;2022-08-19T04:42:44;17.50;99.90
20147;DHT22;10234;50.856;15.716;2022-08-19T04:45:13;17.50;99.90
20147;DHT22;10234;50.856;15.716;2022-08-19T04:47:42;17.50;99.90
20147;DHT22;10234;50.856;15.716;2022-08-19T04:50:10;17.70;99.90
20147;DHT22;10234;50.856;15.716;2022-08-19T04:52:37;17.70;99.90
20147;DHT22;10234;50.856;15.716;2022-08-19T04:55:05;17.90;99.90
20147;DHT22;10234;50.856;15.716;2022-08-19T04:57:32;18.10;99.90
20147;DHT22;10234;50.856;15.716;2022-08-19T05:00:01;18.10;99.90
20147;DHT22;10234;50.856;15.716;2022-08-19T05:02:27;18.40;99.90
20147;DHT22;10234;50.856;15.716;2022-08-19T05:04:57;18.60;99.90
20147;DHT22;10234;50.856;15.716;2022-08-19T05:07:26;18.90;99.90
20147;DHT22;10234;50.856;15.716;2022-08-19T05:09:53;19.10;99.90
20147;DHT22;10234;50.856;15.716;2022-08-19T05:12:20;19.30;99.90
20147;DHT22;10234;50.856;15.716;2022-08-19T05:14:47;19.70;99.90
20147;DHT22;10234;50.856;15.716;2022-08-19T05:17:16;19.90;99.90
20147;DHT22;10234;50.856;15.716;2022-08-19T05:19:43;20.20;99.90
20147;DHT22;10234;50.856;15.716;2022-08-19T05:25:03;21.30;99.90
20147;DHT22;10234;50.856;15.716;2022-08-19T05:27:30;21.10;99.90
20147;DHT22;10234;50.856;15.716;2022-08-19T05:29:57;21.60;99.90
20147;DHT22;10234;50.856;15.716;2022-08-19T05:32:26;21.80;99.90
20147;DHT22;10234;50.856;15.716;2022-08-19T05:34:53;22.30;99.90
20147;DHT22;10234;50.856;15.716;2022-08-19T05:37:20;22.60;99.90
20147;DHT22;10234;50.856;15.716;2022-08-19T05:39:47;22.80;99.90
20147;DHT22;10234;50.856;15.716;2022-08-19T05:42:15;23.00;99.90
20147;DHT22;10234;50.856;15.716;2022-08-19T05:44:43;23.30;99.90
20147;DHT22;10234;50.856;15.716;2022-08-19T05:47:11;23.60;99.90
20147;DHT22;10234;50.856;15.716;2022-08-19T05:49:41;24.40;99.90
20147;DHT22;10234;50.856;15.716;2022-08-19T05:52:10;24.60;99.90
20147;DHT22;10234;50.856;15.716;2022-08-19T05:54:38;24.80;99.90
20147;DHT22;10234;50.856;15.716;2022-08-19T05:57:06;25.60;99.90
20147;DHT22;10234;50.856;15.716;2022-08-19T05:59:33;25.40;99.90
20147;DHT22;10234;50.856;15.716;2022-08-19T06:02:01;26.40;99.90
20147;DHT22;10234;50.856;15.716;2022-08-19T06:04:30;26.40;99.90
20147;DHT22;10234;50.856;15.716;2022-08-19T06:06:58;27.00;99.90
20147;DHT22;10234;50.856;15.716;2022-08-19T06:09:25;27.60;99.90
20147;DHT22;10234;50.856;15.716;2022-08-19T06:11:53;28.30;99.90
20147;DHT22;10234;50.856;15.716;2022-08-19T06:14:23;29.10;99.90
20147;DHT22;10234;50.856;15.716;2022-08-19T06:16:50;29.70;95.40
20147;DHT22;10234;50.856;15.716;2022-08-19T06:19:19;30.30;94.30
20147;DHT22;10234;50.856;15.716;2022-08-19T06:21:49;30.80;93.00
20147;DHT22;10234;50.856;15.716;2022-08-19T06:24:20;31.50;91.40
20147;DHT22;10234;50.856;15.716;2022-08-19T06:26:51;32.00;86.20
20147;DHT22;10234;50.856;15.716;2022-08-19T06:29:21;32.50;89.40
20147;DHT22;10234;50.856;15.716;2022-08-19T06:31:52;32.90;79.70
20147;DHT22;10234;50.856;15.716;2022-08-19T06:34:19;33.20;72.60
20147;DHT22;10234;50.856;15.716;2022-08-19T06:36:48;33.30;71.90
20147;DHT22;10234;50.856;15.716;2022-08-19T06:39:22;33.20;73.30
20147;DHT22;10234;50.856;15.716;2022-08-19T06:41:51;33.50;71.60
20147;DHT22;10234;50.856;15.716;2022-08-19T06:44:20;33.70;73.20
20147;DHT22;10234;50.856;15.716;2022-08-19T06:46:47;33.80;68.90
20147;DHT22;10234;50.856;15.716;2022-08-19T06:49:14;33.80;68.90
20147;DHT22;10234;50.856;15.716;2022-08-19T06:51:41;34.50;68.70
20147;DHT22;10234;50.856;15.716;2022-08-19T06:54:09;34.70;64.30
20147;DHT22;10234;50.856;15.716;2022-08-19T06:56:37;35.70;64.70
20147;DHT22;10234;50.856;15.716;2022-08-19T06:59:07;36.50;61.60
20147;DHT22;10234;50.856;15.716;2022-08-19T07:01:35;36.70;61.50
20147;DHT22;10234;50.856;15.716;2022-08-19T07:04:04;37.30;58.60
20147;DHT22;10234;50.856;15.716;2022-08-19T07:06:30;37.80;65.80
20147;DHT22;10234;50.856;15.716;2022-08-19T07:08:57;38.20;59.30
20147;DHT22;10234;50.856;15.716;2022-08-19T07:11:24;38.90;59.50
20147;DHT22;10234;50.856;15.716;2022-08-19T07:13:53;38.70;54.70
20147;DHT22;10234;50.856;15.716;2022-08-19T07:16:20;39.00;54.80
20147;DHT22;10234;50.856;15.716;2022-08-19T07:18:47;38.90;53.80
20147;DHT22;10234;50.856;15.716;2022-08-19T07:21:17;39.60;57.70
20147;DHT22;10234;50.856;15.716;2022-08-19T07:23:45;39.10;54.30
20147;DHT22;10234;50.856;15.716;2022-08-19T07:26:15;39.30;54.10
20147;DHT22;10234;50.856;15.716;2022-08-19T07:28:43;39.00;52.80
20147;DHT22;10234;50.856;15.716;2022-08-19T07:31:13;39.30;53.00
20147;DHT22;10234;50.856;15.716;2022-08-19T07:33:41;39.70;53.20
20147;DHT22;10234;50.856;15.716;2022-08-19T07:36:11;40.30;55.40
20147;DHT22;10234;50.856;15.716;2022-08-19T07:38:40;40.30;54.30
20147;DHT22;10234;50.856;15.716;2022-08-19T07:41:08;40.70;50.80
20147;DHT22;10234;50.856;15.716;2022-08-19T07:43:36;41.20;50.60
20147;DHT22;10234;50.856;15.716;2022-08-19T07:46:03;42.10;54.80
20147;DHT22;10234;50.856;15.716;2022-08-19T07:48:31;41.80;49.50
20147;DHT22;10234;50.856;15.716;2022-08-19T07:51:01;41.80;49.60
20147;DHT22;10234;50.856;15.716;2022-08-19T07:53:29;42.40;52.80
20147;DHT22;10234;50.856;15.716;2022-08-19T07:55:56;42.10;49.30
20147;DHT22;10234;50.856;15.716;2022-08-19T07:58:30;42.50;48.80
20147;DHT22;10234;50.856;15.716;2022-08-19T08:00:57;42.70;47.60
20147;DHT22;10234;50.856;15.716;2022-08-19T08:03:27;42.30;48.70
20147;DHT22;10234;50.856;15.716;2022-08-19T08:06:10;42.40;48.90
20147;DHT22;10234;50.856;15.716;2022-08-19T08:08:55;42.00;47.80
20147;DHT22;10234;50.856;15.716;2022-08-19T08:11:49;39.60;49.60
20147;DHT22;10234;50.856;15.716;2022-08-19T08:14:19;37.40;52.40
20147;DHT22;10234;50.856;15.716;2022-08-19T08:16:47;36.70;53.50
20147;DHT22;10234;50.856;15.716;2022-08-19T08:19:17;35.90;54.80
20147;DHT22;10234;50.856;15.716;2022-08-19T08:21:45;35.70;55.60
20147;DHT22;10234;50.856;15.716;2022-08-19T08:24:12;35.40;56.10
20147;DHT22;10234;50.856;15.716;2022-08-19T08:26:39;35.30;57.50
20147;DHT22;10234;50.856;15.716;2022-08-19T08:29:06;36.00;55.80
20147;DHT22;10234;50.856;15.716;2022-08-19T08:31:38;37.00;55.10
20147;DHT22;10234;50.856;15.716;2022-08-19T08:34:06;37.70;53.20
20147;DHT22;10234;50.856;15.716;2022-08-19T08:36:36;38.60;53.40
20147;DHT22;10234;50.856;15.716;2022-08-19T08:39:09;39.40;51.30
20147;DHT22;10234;50.856;15.716;2022-08-19T08:41:43;40.00;51.00
20147;DHT22;10234;50.856;15.716;2022-08-19T08:44:16;38.90;50.50
20147;DHT22;10234;50.856;15.716;2022-08-19T08:46:48;37.10;52.60
20147;DHT22;10234;50.856;15.716;2022-08-19T08:49:24;35.30;55.30
20147;DHT22;10234;50.856;15.716;2022-08-19T08:51:57;33.90;58.40
20147;DHT22;10234;50.856;15.716;2022-08-19T08:54:33;33.00;60.40
20147;DHT22;10234;50.856;15.716;2022-08-19T08:57:04;32.50;61.70
20147;DHT22;10234;50.856;15.716;2022-08-19T08:59:35;32.10;61.80
20147;DHT22;10234;50.856;15.716;2022-08-19T09:02:04;31.90;63.40
20147;DHT22;10234;50.856;15.716;2022-08-19T09:04:31;31.50;63.20
20147;DHT22;10234;50.856;15.716;2022-08-19T09:07:11;30.80;75.80
20147;DHT22;10234;50.856;15.716;2022-08-19T09:09:46;31.00;66.00
20147;DHT22;10234;50.856;15.716;2022-08-19T09:12:19;31.10;66.10
20147;DHT22;10234;50.856;15.716;2022-08-19T09:14:50;31.40;74.70
20147;DHT22;10234;50.856;15.716;2022-08-19T09:17:18;31.30;75.50
20147;DHT22;10234;50.856;15.716;2022-08-19T09:19:54;31.50;65.30
20147;DHT22;10234;50.856;15.716;2022-08-19T09:22:21;31.20;65.70
20147;DHT22;10234;50.856;15.716;2022-08-19T09:24:50;31.90;66.90
20147;DHT22;10234;50.856;15.716;2022-08-19T09:27:18;33.80;62.70
20147;DHT22;10234;50.856;15.716;2022-08-19T09:29:46;35.20;58.80
20147;DHT22;10234;50.856;15.716;2022-08-19T09:32:14;36.50;58.30
20147;DHT22;10234;50.856;15.716;2022-08-19T09:34:41;37.00;57.00
20147;DHT22;10234;50.856;15.716;2022-08-19T09:37:09;36.30;56.60
20147;DHT22;10234;50.856;15.716;2022-08-19T09:39:36;35.00;59.70
20147;DHT22;10234;50.856;15.716;2022-08-19T09:42:05;34.10;60.90
20147;DHT22;10234;50.856;15.716;2022-08-19T09:44:36;33.30;62.00
20147;DHT22;10234;50.856;15.716;2022-08-19T09:47:04;32.30;64.20
20147;DHT22;10234;50.856;15.716;2022-08-19T09:49:31;31.50;67.80
20147;DHT22;10234;50.856;15.716;2022-08-19T09:51:58;30.50;78.20
20147;DHT22;10234;50.856;15.716;2022-08-19T09:54:25;30.50;68.10
20147;DHT22;10234;50.856;15.716;2022-08-19T09:56:53;30.30;69.00
20147;DHT22;10234;50.856;15.716;2022-08-19T09:59:21;30.00;69.80
20147;DHT22;10234;50.856;15.716;2022-08-19T10:01:48;30.00;72.20
20147;DHT22;10234;50.856;15.716;2022-08-19T10:04:15;29.90;72.10
20147;DHT22;10234;50.856;15.716;2022-08-19T10:06:42;29.90;72.00
20147;DHT22;10234;50.856;15.716;2022-08-19T10:09:10;30.00;71.80
20147;DHT22;10234;50.856;15.716;2022-08-19T10:11:40;30.70;81.40
20147;DHT22;10234;50.856;15.716;2022-08-19T10:14:07;30.60;70.50
20147;DHT22;10234;50.856;15.716;2022-08-19T10:16:36;30.70;70.70
20147;DHT22;10234;50.856;15.716;2022-08-19T10:19:04;30.80;72.20
20147;DHT22;10234;50.856;15.716;2022-08-19T10:21:33;31.00;71.10
20147;DHT22;10234;50.856;15.716;2022-08-19T10:24:03;31.00;71.30
20147;DHT22;10234;50.856;15.716;2022-08-19T10:26:32;30.90;71.80
20147;DHT22;10234;50.856;15.716;2022-08-19T10:29:00;30.80;70.90
20147;DHT22;10234;50.856;15.716;2022-08-19T10:31:29;30.90;72.00
20147;DHT22;10234;50.856;15.716;2022-08-19T10:33:59;30.70;73.30
20147;DHT22;10234;50.856;15.716;2022-08-19T10:36:28;30.80;73.10
20147;DHT22;10234;50.856;15.716;2022-08-19T10:38:57;30.90;72.20
20147;DHT22;10234;50.856;15.716;2022-08-19T10:41:26;31.10;81.20
20147;DHT22;10234;50.856;15.716;2022-08-19T10:43:53;31.20;70.70
20147;DHT22;10234;50.856;15.716;2022-08-19T10:46:22;32.20;71.00
20147;DHT22;10234;50.856;15.716;2022-08-19T10:48:50;35.50;72.90
20147;DHT22;10234;50.856;15.716;2022-08-19T10:51:19;35.80;62.50
20147;DHT22;10234;50.856;15.716;2022-08-19T10:54:00;36.90;60.00
20147;DHT22;10234;50.856;15.716;2022-08-19T10:56:28;38.00;58.00
20147;DHT22;10234;50.856;15.716;2022-08-19T10:59:13;37.60;56.70
20147;DHT22;10234;50.856;15.716;2022-08-19T11:01:42;36.70;58.70
20147;DHT22;10234;50.856;15.716;2022-08-19T11:04:09;35.90;61.00
20147;DHT22;10234;50.856;15.716;2022-08-19T11:06:40;35.10;61.20
20147;DHT22;10234;50.856;15.716;2022-08-19T11:09:09;34.60;62.10
20147;DHT22;10234;50.856;15.716;2022-08-19T11:11:38;34.30;61.00
20147;DHT22;10234;50.856;15.716;2022-08-19T11:14:06;33.40;62.70
20147;DHT22;10234;50.856;15.716;2022-08-19T11:16:33;32.90;64.50
20147;DHT22;10234;50.856;15.716;2022-08-19T11:19:00;32.70;65.90
20147;DHT22;10234;50.856;15.716;2022-08-19T11:21:29;32.60;65.60
20147;DHT22;10234;50.856;15.716;2022-08-19T11:24:00;32.40;68.00
20147;DHT22;10234;50.856;15.716;2022-08-19T11:26:28;31.80;78.90
20147;DHT22;10234;50.856;15.716;2022-08-19T11:28:56;32.10;68.60
20147;DHT22;10234;50.856;15.716;2022-08-19T11:31:25;32.20;68.90
20147;DHT22;10234;50.856;15.716;2022-08-19T11:33:53;32.20;68.20
20147;DHT22;10234;50.856;15.716;2022-08-19T11:36:21;32.30;70.40
20147;DHT22;10234;50.856;15.716;2022-08-19T11:38:49;32.50;66.20
20147;DHT22;10234;50.856;15.716;2022-08-19T11:41:18;32.80;67.90
20147;DHT22;10234;50.856;15.716;2022-08-19T11:43:46;32.80;68.60
20147;DHT22;10234;50.856;15.716;2022-08-19T11:46:15;33.00;66.40
20147;DHT22;10234;50.856;15.716;2022-08-19T11:48:42;33.00;69.30
20147;DHT22;10234;50.856;15.716;2022-08-19T11:51:11;33.00;68.50
20147;DHT22;10234;50.856;15.716;2022-08-19T11:53:39;33.10;66.30
20147;DHT22;10234;50.856;15.716;2022-08-19T11:56:07;33.10;65.60
20147;DHT22;10234;50.856;15.716;2022-08-19T11:58:36;33.00;65.90
20147;DHT22;10234;50.856;15.716;2022-08-19T12:01:06;32.90;64.30
20147;DHT22;10234;50.856;15.716;2022-08-19T12:03:33;32.90;65.90
20147;DHT22;10234;50.856;15.716;2022-08-19T12:06:04;32.90;64.10
20147;DHT22;10234;50.856;15.716;2022-08-19T12:08:31;32.80;64.80
20147;DHT22;10234;50.856;15.716;2022-08-19T12:10:59;32.70;66.10
20147;DHT22;10234;50.856;15.716;2022-08-19T12:13:27;32.50;77.30
20147;DHT22;10234;50.856;15.716;2022-08-19T12:15:55;32.90;66.90
20147;DHT22;10234;50.856;15.716;2022-08-19T12:18:22;32.80;77.30
20147;DHT22;10234;50.856;15.716;2022-08-19T12:20:51;33.20;79.40
20147;DHT22;10234;50.856;15.716;2022-08-19T12:23:20;32.80;67.90
20147;DHT22;10234;50.856;15.716;2022-08-19T12:25:48;32.70;66.80
20147;DHT22;10234;50.856;15.716;2022-08-19T12:28:17;32.50;68.30
20147;DHT22;10234;50.856;15.716;2022-08-19T12:30:44;32.30;67.30
20147;DHT22;10234;50.856;15.716;2022-08-19T12:33:12;32.20;67.80
20147;DHT22;10234;50.856;15.716;2022-08-19T12:35:40;32.00;69.50
20147;DHT22;10234;50.856;15.716;2022-08-19T12:38:08;31.80;69.90
20147;DHT22;10234;50.856;15.716;2022-08-19T12:40:34;31.60;71.20
20147;DHT22;10234;50.856;15.716;2022-08-19T12:43:01;31.50;73.80
20147;DHT22;10234;50.856;15.716;2022-08-19T12:45:28;31.40;72.80
20147;DHT22;10234;50.856;15.716;2022-08-19T12:47:55;30.90;86.10
20147;DHT22;10234;50.856;15.716;2022-08-19T12:50:23;31.10;74.60
20147;DHT22;10234;50.856;15.716;2022-08-19T12:52:50;30.80;76.30
20147;DHT22;10234;50.856;15.716;2022-08-19T12:55:18;30.70;75.80
20147;DHT22;10234;50.856;15.716;2022-08-19T12:57:45;30.40;78.00
20147;DHT22;10234;50.856;15.716;2022-08-19T13:00:16;30.40;90.20
20147;DHT22;10234;50.856;15.716;2022-08-19T13:02:44;30.40;79.40
20147;DHT22;10234;50.856;15.716;2022-08-19T13:05:15;30.40;79.90
20147;DHT22;10234;50.856;15.716;2022-08-19T13:07:46;30.40;79.40
20147;DHT22;10234;50.856;15.716;2022-08-19T13:10:15;30.40;79.40
20147;DHT22;10234;50.856;15.716;2022-08-19T13:12:43;30.20;90.80
20147;DHT22;10234;50.856;15.716;2022-08-19T13:15:11;30.30;80.60
20147;DHT22;10234;50.856;15.716;2022-08-19T13:17:39;30.20;81.70
20147;DHT22;10234;50.856;15.716;2022-08-19T13:20:08;30.30;92.20
20147;DHT22;10234;50.856;15.716;2022-08-19T13:22:35;30.40;82.80
20147;DHT22;10234;50.856;15.716;2022-08-19T13:25:05;30.40;83.80
20147;DHT22;10234;50.856;15.716;2022-08-19T13:27:32;30.70;84.10
20147;DHT22;10234;50.856;15.716;2022-08-19T13:29:59;30.80;80.80
20147;DHT22;10234;50.856;15.716;2022-08-19T13:32:43;30.70;81.60
20147;DHT22;10234;50.856;15.716;2022-08-19T13:35:27;30.70;82.30
20147;DHT22;10234;50.856;15.716;2022-08-19T13:37:54;30.20;92.70
20147;DHT22;10234;50.856;15.716;2022-08-19T13:40:24;30.50;84.30
20147;DHT22;10234;50.856;15.716;2022-08-19T13:42:54;30.40;86.50
20147;DHT22;10234;50.856;15.716;2022-08-19T13:45:23;30.40;84.40
20147;DHT22;10234;50.856;15.716;2022-08-19T13:47:52;30.40;85.60
20147;DHT22;10234;50.856;15.716;2022-08-19T13:50:22;30.20;88.30
20147;DHT22;10234;50.856;15.716;2022-08-19T13:52:51;30.00;87.90
20147;DHT22;10234;50.856;15.716;2022-08-19T13:55:18;29.80;90.70
20147;DHT22;10234;50.856;15.716;2022-08-19T13:57:50;29.50;91.80
20147;DHT22;10234;50.856;15.716;2022-08-19T14:00:18;29.50;92.40
20147;DHT22;10234;50.856;15.716;2022-08-19T14:02:46;29.40;93.30
20147;DHT22;10234;50.856;15.716;2022-08-19T14:05:15;29.20;95.00
20147;DHT22;10234;50.856;15.716;2022-08-19T14:07:42;28.80;99.90
20147;DHT22;10234;50.856;15.716;2022-08-19T14:10:10;28.80;99.90
20147;DHT22;10234;50.856;15.716;2022-08-19T14:12:38;28.90;99.90
20147;DHT22;10234;50.856;15.716;2022-08-19T14:15:09;28.80;99.90
20147;DHT22;10234;50.856;15.716;2022-08-19T14:17:37;28.90;99.90
20147;DHT22;10234;50.856;15.716;2022-08-19T14:20:07;28.80;99.90
20147;DHT22;10234;50.856;15.716;2022-08-19T14:22:37;29.10;99.90
20147;DHT22;10234;50.856;15.716;2022-08-19T14:25:05;29.10;99.90
20147;DHT22;10234;50.856;15.716;2022-08-19T14:27:33;29.10;99.90
20147;DHT22;10234;50.856;15.716;2022-08-19T14:30:00;29.40;99.90
20147;DHT22;10234;50.856;15.716;2022-08-19T14:32:28;29.70;99.90
20147;DHT22;10234;50.856;15.716;2022-08-19T14:34:55;29.70;98.70
20147;DHT22;10234;50.856;15.716;2022-08-19T14:37:22;29.60;98.80
20147;DHT22;10234;50.856;15.716;2022-08-19T14:39:49;29.70;99.30
20147;DHT22;10234;50.856;15.716;2022-08-19T14:42:16;29.30;99.90
20147;DHT22;10234;50.856;15.716;2022-08-19T14:44:42;29.30;98.00
20147;DHT22;10234;50.856;15.716;2022-08-19T14:47:10;29.00;98.50
20147;DHT22;10234;50.856;15.716;2022-08-19T14:49:38;28.40;99.90
20147;DHT22;10234;50.856;15.716;2022-08-19T14:52:06;28.60;99.90
20147;DHT22;10234;50.856;15.716;2022-08-19T14:54:33;28.60;99.90
20147;DHT22;10234;50.856;15.716;2022-08-19T14:56:59;28.40;99.90
20147;DHT22;10234;50.856;15.716;2022-08-19T14:59:26;28.30;99.90
20147;DHT22;10234;50.856;15.716;2022-08-19T15:01:53;28.00;99.90
20147;DHT22;10234;50.856;15.716;2022-08-19T15:04:20;28.00;99.90
20147;DHT22;10234;50.856;15.716;2022-08-19T15:06:48;27.80;99.90
20147;DHT22;10234;50.856;15.716;2022-08-19T15:09:16;27.70;99.90
20147;DHT22;10234;50.856;15.716;2022-08-19T15:11:43;27.60;99.90
20147;DHT22;10234;50.856;15.716;2022-08-19T15:14:09;27.30;99.90
20147;DHT22;10234;50.856;15.716;2022-08-19T15:16:36;27.30;99.90
20147;DHT22;10234;50.856;15.716;2022-08-19T15:19:07;27.20;99.90
20147;DHT22;10234;50.856;15.716;2022-08-19T15:24:04;26.90;99.90
20147;DHT22;10234;50.856;15.716;2022-08-19T15:26:31;26.70;99.90
20147;DHT22;10234;50.856;15.716;2022-08-19T15:31:25;26.60;99.90
20147;DHT22;10234;50.856;15.716;2022-08-19T15:33:54;26.40;99.90
20147;DHT22;10234;50.856;15.716;2022-08-19T15:36:23;26.30;99.90